createdAt,value
2023-03-23T00:02:16.117Z,70.54
2023-03-23T00:04:50.300Z,78.03
2023-03-23T00:07:22.295Z,76.42
2023-03-23T00:09:54.043Z,74.97
2023-03-23T00:12:34.138Z,74.06
2023-03-23T00:15:06.642Z,76.32
2023-03-23T00:17:36.836Z,86.68
2023-03-23T00:20:12.711Z,88.78
2023-03-23T00:22:43.935Z,87.92
2023-03-23T00:25:13.841Z,88.46
2023-03-23T00:27:43.908Z,87.71
2023-03-23T00:30:18.829Z,88.06
2023-03-23T00:32:49.575Z,86.45
2023-03-23T00:35:22.050Z,84.67
2023-03-23T00:37:52.076Z,85.42
2023-03-23T00:40:23.281Z,85.17
2023-03-23T00:42:53.129Z,87.34
2023-03-23T00:45:23.033Z,88.18
2023-03-23T00:47:53.046Z,87.52
2023-03-23T00:50:33.811Z,86.63
2023-03-23T00:53:08.481Z,86.38
2023-03-23T00:55:38.616Z,86.84
2023-03-23T00:58:09.286Z,86.76
2023-03-23T01:00:40.715Z,86.97
2023-03-23T01:03:19.191Z,87.16
2023-03-23T01:05:52.896Z,87.57
2023-03-23T01:08:23.658Z,87.81
2023-03-23T01:10:55.080Z,89.44
2023-03-23T01:13:24.942Z,91.30
2023-03-23T01:15:54.750Z,89.84
2023-03-23T01:18:33.779Z,91.68
2023-03-23T01:21:11.332Z,90.31
2023-03-23T01:23:43.371Z,90.12
2023-03-23T01:26:15.574Z,89.33
2023-03-23T01:28:46.474Z,89.83
2023-03-23T01:31:18.065Z,86.84
2023-03-23T01:33:48.867Z,86.19
2023-03-23T01:36:27.617Z,84.33
2023-03-23T01:38:59.232Z,92.65
2023-03-23T01:41:29.251Z,82.43
2023-03-23T01:44:02.654Z,82.61
2023-03-23T01:46:38.199Z,83.30
2023-03-23T01:49:12.746Z,82.01
2023-03-23T01:51:49.591Z,81.17
2023-03-23T01:54:22.841Z,83.09
2023-03-23T01:56:57.872Z,83.06
2023-03-23T01:59:29.459Z,84.54
2023-03-23T02:02:27.894Z,84.74
2023-03-23T02:05:08.146Z,84.21
2023-03-23T02:07:41.391Z,82.87
2023-03-23T02:10:12.758Z,84.42
2023-03-23T02:12:43.207Z,86.94
2023-03-23T02:15:14.836Z,87.22
2023-03-23T02:17:54.122Z,87.37
2023-03-23T02:20:46.327Z,87.39
2023-03-23T02:23:31.142Z,87.36
2023-03-23T02:26:14.188Z,88.18
2023-03-23T02:29:12.342Z,86.44
2023-03-23T02:31:51.065Z,86.62
2023-03-23T02:34:29.159Z,85.69
2023-03-23T02:37:04.459Z,86.05
2023-03-23T02:39:37.496Z,85.73
2023-03-23T02:42:14.204Z,90.75
2023-03-23T02:44:47.976Z,84.96
2023-03-23T02:47:23.213Z,85.25
2023-03-23T02:50:00.036Z,84.67
2023-03-23T02:52:33.338Z,85.05
2023-03-23T02:55:05.005Z,86.80
2023-03-23T02:57:40.360Z,88.07
2023-03-23T03:00:17.940Z,88.91
2023-03-23T03:02:53.566Z,89.92
2023-03-23T03:05:36.609Z,90.37
2023-03-23T03:08:20.217Z,89.97
2023-03-23T03:10:59.637Z,92.43
2023-03-23T03:13:41.830Z,90.34
2023-03-23T03:16:20.645Z,87.86
2023-03-23T03:18:56.613Z,87.36
2023-03-23T03:21:33.358Z,85.96
2023-03-23T03:24:09.138Z,85.37
2023-03-23T03:26:39.377Z,80.75
2023-03-23T03:29:26.921Z,82.00
2023-03-23T03:31:59.739Z,84.07
2023-03-23T03:34:33.307Z,83.97
2023-03-23T03:37:07.877Z,84.94
2023-03-23T03:39:39.589Z,87.47
2023-03-23T03:42:09.836Z,90.41
2023-03-23T03:44:39.684Z,89.74
2023-03-23T03:47:09.540Z,88.32
2023-03-23T03:49:39.467Z,87.80
2023-03-23T03:52:11.902Z,88.10
2023-03-23T03:54:45.926Z,88.42
2023-03-23T03:57:15.911Z,87.65
2023-03-23T04:00:14.856Z,87.97
2023-03-23T04:02:48.554Z,87.30
2023-03-23T04:05:21.889Z,85.66
2023-03-23T04:08:09.712Z,86.19
2023-03-23T04:10:40.521Z,87.73
2023-03-23T04:13:11.585Z,86.29
2023-03-23T04:16:07.299Z,85.72
2023-03-23T04:18:43.853Z,87.59
2023-03-23T04:21:23.359Z,85.62
2023-03-23T04:24:00.144Z,86.48
2023-03-23T04:26:33.723Z,86.22
2023-03-23T04:29:10.765Z,86.57
2023-03-23T04:31:59.688Z,85.81
2023-03-23T04:34:36.495Z,86.89
2023-03-23T04:37:06.629Z,86.56
2023-03-23T04:39:41.151Z,88.90
2023-03-23T04:42:12.417Z,88.44
2023-03-23T04:44:58.628Z,84.18
2023-03-23T04:47:41.334Z,85.07
2023-03-23T04:50:21.824Z,86.63
2023-03-23T04:52:52.534Z,86.13
2023-03-23T04:55:25.120Z,85.42
2023-03-23T04:58:01.327Z,85.41
2023-03-23T05:00:39.772Z,84.95
2023-03-23T05:03:11.109Z,88.02
2023-03-23T05:05:41.612Z,86.30
2023-03-23T05:08:12.401Z,85.16
2023-03-23T05:10:53.730Z,85.04
2023-03-23T05:13:25.917Z,85.17
2023-03-23T05:15:58.460Z,85.34
2023-03-23T05:18:28.745Z,86.45
2023-03-23T05:20:58.583Z,85.32
2023-03-23T05:23:31.900Z,90.58
2023-03-23T05:26:11.667Z,92.25
2023-03-23T05:28:43.038Z,93.67
2023-03-23T05:31:20.331Z,92.52
2023-03-23T05:33:50.904Z,92.84
2023-03-23T05:36:30.395Z,91.58
2023-03-23T05:39:12.578Z,92.08
2023-03-23T05:42:01.502Z,90.26
2023-03-23T05:44:43.571Z,89.15
2023-03-23T05:47:14.576Z,90.67
2023-03-23T05:49:50.470Z,90.64
2023-03-23T05:52:24.970Z,90.32
2023-03-23T05:54:56.509Z,89.89
2023-03-23T05:57:30.239Z,89.86
2023-03-23T06:00:14.557Z,89.68
2023-03-23T06:02:47.119Z,88.43
2023-03-23T06:05:23.359Z,89.77
2023-03-23T06:07:58.013Z,87.97
2023-03-23T06:10:29.373Z,85.88
2023-03-23T06:13:05.365Z,83.49
2023-03-23T06:15:48.661Z,86.12
2023-03-23T06:18:44.305Z,82.68
2023-03-23T06:21:30.189Z,81.24
2023-03-23T06:24:04.688Z,80.59
2023-03-23T06:26:37.536Z,80.77
2023-03-23T06:29:14.706Z,79.97
2023-03-23T06:31:51.731Z,79.32
2023-03-23T06:34:22.174Z,80.05
2023-03-23T06:37:10.561Z,81.86
2023-03-23T06:39:49.458Z,81.05
2023-03-23T06:42:27.880Z,79.55
2023-03-23T06:45:22.500Z,80.30
2023-03-23T06:47:57.242Z,81.03
2023-03-23T06:50:27.455Z,82.17
2023-03-23T06:52:57.476Z,82.79
2023-03-23T06:55:29.230Z,85.75
2023-03-23T06:58:00.786Z,87.19
2023-03-23T07:00:33.771Z,86.22
2023-03-23T07:03:05.063Z,84.67
2023-03-23T07:05:36.787Z,82.17
2023-03-23T07:08:08.519Z,79.98
2023-03-23T07:11:00.412Z,74.55
2023-03-23T07:13:32.513Z,71.98
2023-03-23T07:16:09.407Z,71.18
2023-03-23T07:18:39.392Z,71.21
2023-03-23T07:21:11.274Z,71.02
2023-03-23T07:23:42.688Z,70.52
2023-03-23T07:26:16.122Z,69.48
2023-03-23T07:28:52.701Z,69.75
2023-03-23T07:31:40.192Z,71.55
2023-03-23T07:34:10.401Z,71.12
2023-03-23T07:37:00.587Z,73.20
2023-03-23T07:39:33.084Z,75.45
2023-03-23T07:42:04.361Z,73.46
2023-03-23T07:44:52.781Z,74.44
2023-03-23T07:47:25.295Z,73.13
2023-03-23T07:50:04.755Z,69.45
2023-03-23T07:52:40.731Z,65.91
2023-03-23T07:55:18.679Z,62.14
2023-03-23T07:57:58.676Z,60.83
2023-03-23T08:00:29.690Z,56.11
2023-03-23T08:03:03.703Z,54.88
2023-03-23T08:06:12.600Z,56.74
2023-03-23T08:09:08.167Z,53.33
2023-03-23T08:11:57.093Z,52.54
2023-03-23T08:15:00.476Z,52.40
2023-03-23T08:17:30.289Z,52.28
2023-03-23T08:20:26.614Z,51.10
2023-03-23T08:23:08.671Z,51.55
2023-03-23T08:25:57.248Z,51.50
2023-03-23T08:28:47.197Z,51.26
2023-03-23T08:31:49.268Z,51.00
2023-03-23T08:34:34.732Z,49.88
2023-03-23T08:37:27.301Z,50.28
2023-03-23T08:40:20.419Z,49.60
2023-03-23T08:43:00.943Z,49.47
2023-03-23T08:45:50.234Z,49.66
2023-03-23T08:48:41.090Z,49.41
2023-03-23T08:51:29.991Z,50.36
2023-03-23T08:54:15.430Z,50.70
2023-03-23T08:57:04.832Z,51.63
2023-03-23T08:59:55.264Z,52.40
2023-03-23T09:02:46.456Z,54.34
2023-03-23T09:05:26.258Z,54.23
2023-03-23T09:08:19.825Z,54.87
2023-03-23T09:10:53.107Z,55.46
2023-03-23T09:13:25.301Z,55.11
2023-03-23T09:15:55.618Z,53.82
2023-03-23T09:18:25.805Z,53.36
2023-03-23T09:20:58.001Z,53.08
2023-03-23T09:23:28.272Z,53.36
2023-03-23T09:26:00.798Z,54.96
2023-03-23T09:28:32.394Z,53.29
2023-03-23T09:31:02.307Z,52.12
2023-03-23T09:33:37.336Z,52.39
2023-03-23T09:36:17.736Z,52.78
2023-03-23T09:38:47.833Z,51.38
2023-03-23T09:41:40.928Z,51.91
2023-03-23T09:44:21.123Z,53.52
2023-03-23T09:47:02.726Z,53.91
2023-03-23T09:49:42.361Z,53.09
2023-03-23T09:52:16.588Z,53.59
2023-03-23T09:54:48.032Z,54.85
2023-03-23T09:57:29.693Z,54.53
2023-03-23T10:00:06.129Z,54.79
2023-03-23T10:02:47.194Z,54.86
2023-03-23T10:05:30.750Z,55.93
2023-03-23T10:08:01.039Z,55.22
2023-03-23T10:10:41.576Z,54.60
2023-03-23T10:13:22.996Z,54.92
2023-03-23T10:15:54.006Z,55.65
2023-03-23T10:18:30.829Z,56.17
2023-03-23T10:21:04.454Z,54.04
2023-03-23T10:23:55.895Z,51.85
2023-03-23T10:26:35.209Z,52.06
2023-03-23T10:29:16.662Z,51.82
2023-03-23T10:31:49.536Z,50.72
2023-03-23T10:34:24.503Z,50.98
2023-03-23T10:37:07.570Z,51.74
2023-03-23T10:39:48.277Z,52.71
2023-03-23T10:42:26.533Z,52.48
2023-03-23T10:45:00.178Z,52.43
2023-03-23T10:47:30.907Z,52.31
2023-03-23T10:50:03.750Z,52.97
2023-03-23T10:52:38.783Z,52.51
2023-03-23T10:55:12.666Z,53.66
2023-03-23T10:57:44.391Z,52.42
2023-03-23T11:00:27.792Z,51.72
2023-03-23T11:03:05.150Z,50.84
2023-03-23T11:05:40.838Z,50.18
2023-03-23T11:08:17.123Z,48.80
2023-03-23T11:10:54.870Z,49.78
2023-03-23T11:13:27.292Z,49.07
2023-03-23T11:15:59.739Z,47.97
2023-03-23T11:18:38.587Z,48.62
2023-03-23T11:21:11.246Z,49.28
2023-03-23T11:23:43.368Z,49.37
2023-03-23T11:26:18.410Z,49.69
2023-03-23T11:28:51.532Z,50.48
2023-03-23T11:31:26.474Z,49.92
2023-03-23T11:34:05.845Z,49.95
2023-03-23T11:36:39.914Z,50.69
2023-03-23T11:39:24.654Z,49.50
2023-03-23T11:42:06.869Z,49.90
2023-03-23T11:44:45.775Z,49.79
2023-03-23T11:47:28.643Z,50.91
2023-03-23T11:50:06.810Z,52.88
2023-03-23T11:52:41.895Z,52.26
2023-03-23T11:55:18.548Z,50.88
2023-03-23T11:57:49.344Z,50.42
2023-03-23T12:00:22.106Z,49.16
2023-03-23T12:03:23.028Z,49.35
2023-03-23T12:06:01.733Z,48.63
2023-03-23T12:08:50.284Z,47.40
2023-03-23T12:11:27.730Z,48.68
2023-03-23T12:14:15.094Z,48.86
2023-03-23T12:16:56.846Z,48.96
2023-03-23T12:19:35.694Z,48.26
2023-03-23T12:22:23.198Z,48.77
2023-03-23T12:25:04.638Z,48.61
2023-03-23T12:27:41.976Z,50.08
2023-03-23T12:30:24.831Z,48.89
2023-03-23T12:33:15.262Z,49.00
2023-03-23T12:35:57.353Z,48.13
2023-03-23T12:38:51.918Z,48.44
2023-03-23T12:41:27.388Z,48.71
2023-03-23T12:44:03.059Z,47.87
2023-03-23T12:46:53.851Z,46.56
2023-03-23T12:49:29.548Z,46.62
2023-03-23T12:52:05.385Z,47.49
2023-03-23T12:54:44.847Z,47.10
2023-03-23T12:57:21.358Z,45.63
2023-03-23T12:59:56.581Z,44.73
2023-03-23T13:02:29.670Z,43.81
2023-03-23T13:05:05.353Z,43.08
2023-03-23T13:07:39.797Z,43.36
2023-03-23T13:10:23.549Z,44.84
2023-03-23T13:12:55.167Z,44.64
2023-03-23T13:15:38.973Z,43.64
2023-03-23T13:18:23.753Z,42.95
2023-03-23T13:21:03.153Z,44.23
2023-03-23T13:23:37.944Z,44.00
2023-03-23T13:26:12.665Z,44.07
2023-03-23T13:29:03.013Z,44.37
2023-03-23T13:31:34.874Z,45.05
2023-03-23T13:34:08.304Z,45.54
2023-03-23T13:36:42.428Z,46.74
2023-03-23T13:39:25.279Z,46.05
2023-03-23T13:42:09.136Z,46.36
2023-03-23T13:44:48.888Z,47.05
2023-03-23T13:47:32.399Z,47.06
2023-03-23T13:50:04.292Z,46.96
2023-03-23T13:52:42.201Z,47.74
2023-03-23T13:55:23.043Z,47.41
2023-03-23T13:57:58.831Z,46.19
2023-03-23T14:00:38.167Z,46.30
2023-03-23T14:03:17.988Z,46.04
2023-03-23T14:05:49.678Z,45.95
2023-03-23T14:08:27.693Z,46.90
2023-03-23T14:11:04.113Z,45.94
2023-03-23T14:13:44.383Z,46.74
2023-03-23T14:16:20.770Z,46.37
2023-03-23T14:18:57.430Z,45.89
2023-03-23T14:21:36.306Z,46.63
2023-03-23T14:24:08.753Z,46.19
2023-03-23T14:26:40.065Z,45.96
2023-03-23T14:29:14.491Z,47.05
2023-03-23T14:31:45.225Z,47.42
2023-03-23T14:34:18.758Z,47.43
2023-03-23T14:36:48.951Z,47.53
2023-03-23T14:39:25.237Z,47.29
2023-03-23T14:41:56.773Z,46.93
2023-03-23T14:44:32.919Z,47.14
2023-03-23T14:47:06.817Z,47.24
2023-03-23T14:49:41.974Z,47.00
2023-03-23T14:52:14.332Z,46.27
2023-03-23T14:54:45.649Z,46.65
2023-03-23T14:57:18.235Z,45.95
2023-03-23T14:59:52.125Z,46.49
2023-03-23T15:02:33.656Z,46.00
2023-03-23T15:05:06.554Z,46.36
2023-03-23T15:07:38.874Z,46.07
2023-03-23T15:10:12.308Z,46.37
2023-03-23T15:12:42.416Z,45.38
2023-03-23T15:15:25.426Z,45.39
2023-03-23T15:17:55.750Z,45.45
2023-03-23T15:20:28.580Z,45.33
2023-03-23T15:22:59.308Z,45.51
2023-03-23T15:25:34.399Z,45.42
2023-03-23T15:28:18.224Z,45.52
2023-03-23T15:30:55.284Z,45.80
2023-03-23T15:33:28.927Z,45.66
2023-03-23T15:36:00.870Z,46.25
2023-03-23T15:38:34.683Z,46.54
2023-03-23T15:41:07.357Z,47.10
2023-03-23T15:43:38.626Z,47.00
2023-03-23T15:46:24.953Z,47.45
2023-03-23T15:48:57.073Z,47.85
2023-03-23T15:51:29.859Z,48.21
2023-03-23T15:54:05.670Z,48.05
2023-03-23T15:56:38.964Z,48.39
2023-03-23T15:59:08.887Z,49.64
2023-03-23T16:01:43.821Z,48.63
2023-03-23T16:04:17.215Z,48.33
2023-03-23T16:06:48.184Z,48.24
2023-03-23T16:09:20.796Z,48.84
2023-03-23T16:11:51.111Z,49.00
2023-03-23T16:14:20.965Z,49.26
2023-03-23T16:16:54.921Z,49.40
2023-03-23T16:19:24.835Z,49.43
2023-03-23T16:21:54.709Z,50.41
2023-03-23T16:24:24.553Z,49.96
2023-03-23T16:26:54.466Z,50.37
2023-03-23T16:29:43.397Z,50.82
2023-03-23T16:32:16.780Z,50.43
2023-03-23T16:34:46.674Z,50.73
2023-03-23T16:37:16.873Z,52.10
2023-03-23T16:39:46.726Z,52.29
2023-03-23T16:42:16.738Z,52.20
2023-03-23T16:44:48.934Z,52.51
2023-03-23T16:47:23.531Z,52.82
2023-03-23T16:49:54.451Z,52.63
2023-03-23T16:52:25.478Z,52.62
2023-03-23T16:54:55.555Z,53.09
2023-03-23T16:57:25.973Z,53.33
2023-03-23T16:59:58.563Z,53.66
2023-03-23T17:02:31.276Z,53.89
2023-03-23T17:05:01.950Z,54.35
2023-03-23T17:07:31.972Z,54.52
2023-03-23T17:10:01.835Z,55.27
2023-03-23T17:12:31.750Z,55.39
2023-03-23T17:15:01.663Z,55.07
2023-03-23T17:17:34.453Z,56.47
2023-03-23T17:20:04.643Z,56.03
2023-03-23T17:22:35.048Z,56.68
2023-03-23T17:25:05.250Z,58.28
2023-03-23T17:27:35.103Z,57.15
2023-03-23T17:30:05.011Z,60.46
2023-03-23T17:32:37.846Z,62.42
2023-03-23T17:35:09.619Z,61.43
2023-03-23T17:37:40.175Z,60.46
2023-03-23T17:40:13.037Z,61.69
2023-03-23T17:42:43.591Z,60.76
2023-03-23T17:45:13.517Z,61.57
2023-03-23T17:47:46.123Z,62.00
2023-03-23T17:50:16.604Z,61.86
2023-03-23T17:52:46.487Z,62.82
2023-03-23T17:55:16.371Z,62.23
2023-03-23T17:57:46.705Z,61.78
2023-03-23T18:00:17.590Z,61.82
2023-03-23T18:02:50.105Z,62.31
2023-03-23T18:05:20.156Z,63.24
2023-03-23T18:07:50.298Z,62.28
2023-03-23T18:10:20.388Z,62.86
2023-03-23T18:12:52.196Z,64.13
2023-03-23T18:15:22.560Z,63.83
2023-03-23T18:18:00.843Z,63.31
2023-03-23T18:20:30.955Z,63.59
2023-03-23T18:23:01.135Z,64.38
2023-03-23T18:25:31.060Z,64.17
2023-03-23T18:28:04.451Z,64.36
2023-03-23T18:30:35.786Z,64.19
2023-03-23T18:33:08.253Z,63.39
2023-03-23T18:35:38.144Z,64.76
2023-03-23T18:38:08.748Z,64.42
2023-03-23T18:40:38.646Z,66.10
2023-03-23T18:43:08.499Z,64.50
2023-03-23T18:45:38.578Z,66.10
2023-03-23T18:48:12.320Z,66.44
2023-03-23T18:50:42.281Z,67.32
2023-03-23T18:53:14.678Z,68.32
2023-03-23T18:55:45.008Z,67.98
2023-03-23T18:58:16.391Z,68.30
2023-03-23T19:00:46.715Z,69.38
2023-03-23T19:03:19.209Z,68.91
2023-03-23T19:05:50.217Z,69.63
2023-03-23T19:08:20.099Z,70.89
2023-03-23T19:10:50.163Z,70.13
2023-03-23T19:13:20.170Z,70.57
2023-03-23T19:15:50.173Z,70.35
2023-03-23T19:18:23.321Z,70.24
2023-03-23T19:21:13.385Z,70.02
2023-03-23T19:23:44.662Z,69.47
2023-03-23T19:26:24.690Z,69.22
2023-03-23T19:29:24.399Z,68.54
2023-03-23T19:31:46.295Z,68.63
2023-03-23T19:34:19.949Z,68.52
2023-03-23T19:36:54.913Z,68.14
2023-03-23T19:39:29.550Z,69.67
2023-03-23T19:41:59.572Z,68.63
2023-03-23T19:44:29.525Z,68.94
2023-03-23T19:46:59.540Z,70.10
2023-03-23T19:49:32.240Z,69.02
2023-03-23T19:52:06.455Z,69.80
2023-03-23T19:54:41.004Z,69.87
2023-03-23T19:57:12.186Z,69.63
2023-03-23T19:59:42.805Z,69.67
2023-03-23T20:02:14.334Z,69.84
2023-03-23T20:04:48.089Z,71.10
2023-03-23T20:07:18.018Z,71.44
2023-03-23T20:09:48.596Z,72.10
2023-03-23T20:12:18.624Z,71.45
2023-03-23T20:14:48.496Z,70.71
2023-03-23T20:17:18.422Z,69.88
2023-03-23T20:19:50.971Z,68.91
2023-03-23T20:22:20.865Z,71.18
2023-03-23T20:24:51.229Z,70.78
2023-03-23T20:27:22.900Z,70.65
2023-03-23T20:29:53.853Z,72.13
2023-03-23T20:32:23.850Z,70.15
2023-03-23T20:34:57.227Z,72.16
2023-03-23T20:37:27.171Z,69.87
2023-03-23T20:39:58.058Z,73.73
2023-03-23T20:42:29.574Z,75.63
2023-03-23T20:44:59.515Z,72.25
2023-03-23T20:47:31.516Z,74.69
2023-03-23T20:50:06.061Z,73.61
2023-03-23T20:52:40.268Z,77.39
2023-03-23T20:55:10.844Z,76.72
2023-03-23T20:57:42.291Z,78.32
2023-03-23T21:00:16.421Z,78.36
2023-03-23T21:02:49.802Z,77.42
2023-03-23T21:05:22.888Z,76.37
2023-03-23T21:07:53.038Z,78.29
2023-03-23T21:10:25.785Z,79.19
2023-03-23T21:12:56.662Z,78.22
2023-03-23T21:15:27.247Z,75.11
2023-03-23T21:17:57.184Z,76.99
2023-03-23T21:20:30.083Z,76.07
2023-03-23T21:23:00.295Z,78.61
2023-03-23T21:25:33.926Z,78.23
2023-03-23T21:28:06.869Z,76.06
2023-03-23T21:30:36.759Z,78.69
2023-03-23T21:33:08.420Z,79.83
2023-03-23T21:35:41.875Z,75.97
2023-03-23T21:38:14.456Z,75.89
2023-03-23T21:40:45.147Z,77.23
2023-03-23T21:43:17.097Z,78.72
2023-03-23T21:45:48.141Z,78.16
2023-03-23T21:48:18.100Z,80.74
2023-03-23T21:50:50.914Z,78.15
2023-03-23T21:53:21.303Z,77.33
2023-03-23T21:55:53.282Z,78.13
2023-03-23T21:58:26.916Z,78.23
2023-03-23T22:00:59.245Z,79.58
2023-03-23T22:03:32.424Z,80.12
2023-03-23T22:06:11.611Z,81.77
2023-03-23T22:08:42.929Z,82.99
2023-03-23T22:11:15.662Z,83.88
2023-03-23T22:13:45.870Z,83.15
2023-03-23T22:16:18.035Z,83.46
2023-03-23T22:18:49.052Z,84.86
2023-03-23T22:21:23.024Z,85.58
2023-03-23T22:23:52.885Z,87.38
2023-03-23T22:26:24.014Z,88.62
2023-03-23T22:28:54.238Z,89.43
2023-03-23T22:31:26.658Z,91.83
2023-03-23T22:33:58.128Z,90.23
2023-03-23T22:36:33.409Z,88.22
2023-03-23T22:39:04.247Z,88.06
2023-03-23T22:41:36.950Z,88.50
2023-03-23T22:44:06.989Z,87.58
2023-03-23T22:46:36.917Z,88.14
2023-03-23T22:49:07.005Z,90.47
2023-03-23T22:51:39.680Z,88.67
2023-03-23T22:54:09.891Z,89.63
2023-03-23T22:56:39.891Z,88.53
2023-03-23T22:59:11.164Z,88.65
2023-03-23T23:01:41.032Z,89.45
2023-03-23T23:04:11.376Z,88.46
2023-03-23T23:06:43.966Z,88.50
2023-03-23T23:09:13.813Z,86.59
2023-03-23T23:11:43.728Z,85.52
2023-03-23T23:14:13.649Z,88.07
2023-03-23T23:16:44.749Z,86.08
2023-03-23T23:19:14.852Z,86.25
2023-03-23T23:21:47.325Z,85.70
2023-03-23T23:24:17.224Z,86.40
2023-03-23T23:26:47.413Z,85.99
2023-03-23T23:29:17.825Z,85.46
2023-03-23T23:31:47.743Z,86.62
2023-03-23T23:34:17.587Z,86.52
2023-03-23T23:36:50.313Z,86.62
2023-03-23T23:39:20.188Z,85.69
2023-03-23T23:41:50.060Z,88.49
2023-03-23T23:44:19.956Z,89.85
2023-03-23T23:46:49.849Z,94.40
2023-03-23T23:49:23.045Z,97.95
2023-03-23T23:51:56.579Z,100.00
2023-03-23T23:54:29.765Z,100.00
2023-03-23T23:57:00.174Z,100.00
2023-03-23T23:59:30.720Z,100.00
